Blandford, Massachusetts
Current Conditions -  °F | °C
As of 5:53 PM on Friday 28 Nov 2014 (Local Time) from KBAF Reporting Station
Clear Clear  
Wind Chill: 19°   Ceiling: Unl
Heat Index: 27°   Visibility: 10mi
Dew Point: 13°   Wind: 7mph
Humidity: 56%   Direction: NA
Pressure: 30.18"   Gusts: NA
Location:  42.18°N, 72.93°W
Report Text: KBAF 282253Z VRB06KT 10SM CLR M03/M11 A3018 RMK AO2 SLP226 T10281106
Loading
Personal Weather Stations






























Interactive Weather Map New forecast layout! Learn more

10-Day Weather Forecast

Advertisements
Track Severe Weather on mobile